Time;durP1;ratioP1;P1;durP2;ratioP2;P2;SDS_P1;SDS_P2;PMS_P1;PMS_P2;Temp;Humidity;BMP_temperature;BMP_pressure;BME280_temperature;BME280_humidity;BME280_pressure;Samples;Min_cycle;Max_cycle;Signal;HPM_P1;HPM_P2
2022/06/30 00:00:16;;;;;;;4.37;3.40;;;17.70;99.90;;;;;;5072772;28;20253;-59
2022/06/30 00:02:44;;;;;;;5.77;3.70;;;17.70;99.90;;;;;;5073910;28;20255;-59
2022/06/30 00:05:14;;;;;;;4.67;3.70;;;17.70;99.90;;;;;;5072579;28;20180;-59
2022/06/30 00:07:43;;;;;;;5.43;4.03;;;17.60;99.90;;;;;;5070869;28;20214;-59
2022/06/30 00:10:12;;;;;;;4.97;3.90;;;17.60;99.90;;;;;;5073757;28;20279;-59
2022/06/30 00:12:41;;;;;;;6.13;4.27;;;17.50;99.90;;;;;;5073639;28;20257;-59
2022/06/30 00:15:10;;;;;;;7.60;4.67;;;17.50;99.90;;;;;;5073531;28;20664;-59
2022/06/30 00:17:38;;;;;;;7.40;5.07;;;17.50;99.90;;;;;;5072193;28;20283;-59
2022/06/30 00:20:08;;;;;;;8.27;5.43;;;17.40;99.90;;;;;;5073399;28;20559;-59
2022/06/30 00:22:38;;;;;;;10.67;5.53;;;17.40;99.90;;;;;;5073544;28;20290;-59
2022/06/30 00:25:07;;;;;;;8.10;6.27;;;17.40;99.90;;;;;;5072384;28;20197;-59
2022/06/30 00:27:36;;;;;;;7.97;6.20;;;17.30;99.90;;;;;;5073160;28;20717;-59
2022/06/30 00:30:05;;;;;;;7.57;6.00;;;17.30;99.90;;;;;;5073803;28;20283;-59
2022/06/30 00:32:33;;;;;;;6.40;5.90;;;17.30;99.90;;;;;;5073665;28;20272;-59
2022/06/30 00:35:03;;;;;;;8.67;6.10;;;17.20;99.90;;;;;;5073531;28;20202;-59
2022/06/30 00:37:31;;;;;;;6.67;5.50;;;17.20;99.90;;;;;;5067712;28;20216;-60
2022/06/30 00:40:01;;;;;;;7.53;6.00;;;17.20;99.90;;;;;;5067657;28;20586;-59
2022/06/30 00:42:30;;;;;;;7.07;5.93;;;17.10;99.90;;;;;;5073947;28;20194;-59
2022/06/30 00:44:59;;;;;;;8.17;5.23;;;17.10;99.90;;;;;;5073367;28;20250;-59
2022/06/30 00:47:27;;;;;;;8.70;5.00;;;17.10;99.90;;;;;;5073199;28;20262;-59
2022/06/30 00:50:35;;;;;;;8.83;4.50;;;17.10;99.90;;;;;;5071664;28;20299;-59
2022/06/30 00:53:05;;;;;;;8.77;4.47;;;17.10;99.90;;;;;;5061639;28;20219;-59
2022/06/30 00:56:04;;;;;;;4.93;4.20;;;17.00;99.90;;;;;;5059882;28;20196;-59
2022/06/30 00:58:38;;;;;;;6.80;4.67;;;17.00;99.90;;;;;;5064070;28;21970;-60
2022/06/30 01:04:44;;;;;;;5.53;4.10;;;17.00;99.90;;;;;;5052793;28;20652;-59
2022/06/30 01:07:17;;;;;;;4.93;3.93;;;16.90;99.90;;;;;;5062657;28;20225;-59
2022/06/30 01:13:09;;;;;;;6.97;3.87;;;16.90;99.90;;;;;;5073182;28;20206;-59
2022/06/30 01:15:39;;;;;;;3.73;3.20;;;16.90;99.90;;;;;;5061804;28;20288;-60
2022/06/30 01:18:07;;;;;;;4.30;3.30;;;16.90;99.90;;;;;;5068675;28;20304;-59
2022/06/30 01:20:36;;;;;;;3.10;2.90;;;16.90;99.90;;;;;;5072112;28;20699;-60
2022/06/30 01:23:06;;;;;;;7.60;3.23;;;16.90;99.90;;;;;;5072541;28;20278;-60
2022/06/30 01:25:35;;;;;;;3.93;2.97;;;16.80;99.90;;;;;;5073030;28;20192;-59
2022/06/30 01:28:04;;;;;;;6.07;3.10;;;16.80;99.90;;;;;;5071494;28;20218;-59
2022/06/30 01:30:32;;;;;;;3.63;3.33;;;16.70;99.90;;;;;;5072687;28;20521;-60
2022/06/30 01:33:03;;;;;;;5.90;3.00;;;16.70;99.90;;;;;;5071607;28;20294;-59
2022/06/30 01:35:31;;;;;;;5.33;3.00;;;16.70;99.90;;;;;;5072892;28;20215;-60
2022/06/30 01:38:00;;;;;;;4.17;3.00;;;16.60;99.90;;;;;;5072911;28;20262;-59
2022/06/30 01:40:33;;;;;;;4.40;2.83;;;16.60;99.90;;;;;;5071917;28;20798;-60
2022/06/30 01:43:03;;;;;;;6.43;3.00;;;16.60;99.90;;;;;;5071735;28;20199;-59
2022/06/30 01:45:32;;;;;;;6.70;2.90;;;16.60;99.90;;;;;;5072900;28;20778;-59
2022/06/30 01:48:00;;;;;;;6.50;3.10;;;16.50;99.90;;;;;;5072984;28;20712;-59
2022/06/30 01:50:31;;;;;;;5.07;2.73;;;16.50;99.90;;;;;;5071835;28;20200;-59
2022/06/30 01:56:33;;;;;;;4.60;2.83;;;16.40;99.90;;;;;;5072753;28;20302;-59
2022/06/30 01:59:01;;;;;;;5.70;2.80;;;16.40;99.90;;;;;;5073177;28;20275;-59
2022/06/30 02:01:30;;;;;;;3.93;2.60;;;16.30;99.90;;;;;;5072945;28;20275;-60
2022/06/30 02:04:46;;;;;;;4.00;2.70;;;16.30;99.90;;;;;;5072613;28;20232;-59
2022/06/30 02:06:48;;;;;;;6.27;2.87;;;16.30;99.90;;;;;;5072744;28;20531;-59
2022/06/30 02:09:16;;;;;;;6.17;2.80;;;16.30;99.90;;;;;;5072484;28;20222;-59
2022/06/30 02:11:46;;;;;;;5.70;2.40;;;16.30;99.90;;;;;;5072730;28;20282;-59
2022/06/30 02:22:44;;;;;;;5.07;2.33;;;16.20;99.90;;;;;;5076307;28;20634;-59
2022/06/30 02:25:16;;;;;;;6.17;2.80;;;16.10;99.90;;;;;;5076054;28;20663;-59
2022/06/30 02:27:46;;;;;;;6.27;2.70;;;16.10;99.90;;;;;;5091877;28;20714;-60
2022/06/30 02:30:15;;;;;;;4.47;2.60;;;16.00;99.90;;;;;;5074824;28;20224;-59
2022/06/30 02:32:43;;;;;;;7.27;2.90;;;16.00;99.90;;;;;;5076384;28;20252;-59
2022/06/30 02:35:12;;;;;;;5.47;3.00;;;16.00;99.90;;;;;;5055810;28;20235;-59
2022/06/30 02:37:41;;;;;;;6.03;3.17;;;15.90;99.90;;;;;;5055965;28;20656;-59
2022/06/30 02:40:11;;;;;;;5.90;2.83;;;15.90;99.90;;;;;;5071121;28;20194;-59
2022/06/30 02:42:39;;;;;;;5.97;3.20;;;15.90;99.90;;;;;;5070115;28;20283;-59
2022/06/30 02:45:10;;;;;;;3.73;3.37;;;15.90;99.90;;;;;;5075918;28;20217;-60
2022/06/30 02:47:40;;;;;;;6.33;3.33;;;15.90;99.90;;;;;;5076318;28;20223;-59
2022/06/30 02:50:10;;;;;;;6.17;3.47;;;15.80;99.90;;;;;;5075728;28;20218;-60
2022/06/30 02:52:40;;;;;;;5.90;3.17;;;15.80;99.90;;;;;;5075565;28;20196;-59
2022/06/30 02:55:09;;;;;;;8.33;3.23;;;15.80;99.90;;;;;;5075504;28;20202;-60
2022/06/30 03:04:52;;;;;;;8.87;3.73;;;15.80;99.90;;;;;;5055439;28;20217;-60
2022/06/30 03:07:20;;;;;;;8.43;3.80;;;15.70;99.90;;;;;;5070927;28;20189;-59
2022/06/30 03:09:48;;;;;;;9.87;3.93;;;15.70;99.90;;;;;;5055369;28;20300;-59
2022/06/30 03:20:43;;;;;;;11.63;3.87;;;15.70;99.90;;;;;;5074936;28;20184;-60
2022/06/30 03:23:12;;;;;;;6.63;3.77;;;15.70;99.90;;;;;;5073524;28;20313;-59
2022/06/30 03:25:40;;;;;;;6.67;3.80;;;15.70;99.90;;;;;;5074738;28;20279;-59
2022/06/30 03:28:08;;;;;;;11.00;3.77;;;15.60;99.90;;;;;;5074405;28;20216;-60
2022/06/30 03:30:41;;;;;;;8.73;3.80;;;15.60;99.90;;;;;;5075012;28;20208;-59
2022/06/30 03:33:09;;;;;;;8.27;3.73;;;15.60;99.90;;;;;;5073448;28;20184;-59
2022/06/30 03:35:38;;;;;;;4.57;3.37;;;15.60;99.90;;;;;;5075374;28;20662;-59
2022/06/30 03:38:08;;;;;;;5.90;3.67;;;15.60;99.90;;;;;;5074596;28;20283;-59
2022/06/30 03:40:36;;;;;;;3.27;2.93;;;15.60;99.90;;;;;;5075251;28;20268;-59
2022/06/30 03:43:05;;;;;;;8.00;3.73;;;15.60;99.90;;;;;;5073423;28;20290;-59
2022/06/30 03:45:34;;;;;;;4.33;3.33;;;15.60;99.90;;;;;;5074548;28;20277;-59
2022/06/30 03:48:04;;;;;;;5.47;3.73;;;15.60;99.90;;;;;;5074706;28;20202;-59
2022/06/30 03:50:33;;;;;;;8.40;3.83;;;15.60;99.90;;;;;;5074253;28;20631;-59
2022/06/30 03:53:02;;;;;;;5.90;3.50;;;15.60;99.90;;;;;;5074340;28;20284;-59
2022/06/30 03:55:33;;;;;;;7.27;3.70;;;15.60;99.90;;;;;;5073476;28;20635;-59
2022/06/30 03:58:02;;;;;;;4.13;3.23;;;15.60;99.90;;;;;;5059013;28;20201;-59
2022/06/30 04:00:31;;;;;;;6.03;3.47;;;15.50;99.90;;;;;;5061208;28;20184;-59
2022/06/30 04:03:21;;;;;;;10.23;3.67;;;15.50;99.90;;;;;;5074153;28;20614;-59
2022/06/30 04:05:50;;;;;;;7.20;3.30;;;15.40;99.90;;;;;;5073434;28;20258;-60
2022/06/30 04:08:18;;;;;;;6.67;3.70;;;15.40;99.90;;;;;;5073041;28;20188;-59
2022/06/30 04:10:48;;;;;;;7.43;4.00;;;15.40;99.90;;;;;;5072678;28;20208;-59
2022/06/30 04:13:16;;;;;;;8.20;4.33;;;15.40;99.90;;;;;;5073061;28;20193;-59
2022/06/30 04:15:45;;;;;;;10.13;3.63;;;15.30;99.90;;;;;;5089950;28;20223;-59
2022/06/30 04:18:13;;;;;;;4.50;3.20;;;15.30;99.90;;;;;;5072750;28;20222;-59
2022/06/30 04:20:42;;;;;;;6.87;3.60;;;15.30;99.90;;;;;;5072393;28;20187;-59
2022/06/30 04:23:10;;;;;;;7.53;3.63;;;15.30;99.90;;;;;;5074112;28;20199;-60
2022/06/30 04:25:39;;;;;;;7.13;4.03;;;15.30;99.90;;;;;;5073723;28;20277;-60
2022/06/30 04:28:08;;;;;;;4.47;3.93;;;15.30;99.90;;;;;;5073818;28;20624;-60
2022/06/30 04:33:22;;;;;;;10.00;3.53;;;15.30;99.90;;;;;;5073083;28;20192;-59
2022/06/30 04:35:51;;;;;;;6.00;3.80;;;15.30;99.90;;;;;;5073521;28;20276;-59
2022/06/30 04:38:19;;;;;;;5.77;4.00;;;15.30;99.90;;;;;;5071788;28;20231;-59
2022/06/30 04:43:35;;;;;;;7.13;3.93;;;15.40;99.90;;;;;;5073687;28;20682;-59
2022/06/30 04:46:03;;;;;;;6.60;4.03;;;15.40;99.90;;;;;;5073443;28;20196;-59
2022/06/30 04:48:31;;;;;;;4.07;3.50;;;15.40;99.90;;;;;;5073526;28;20196;-60
2022/06/30 04:50:59;;;;;;;5.30;3.77;;;15.50;99.90;;;;;;5073482;28;20262;-59
2022/06/30 04:53:28;;;;;;;8.17;3.97;;;15.50;99.90;;;;;;5073822;28;20223;-59
2022/06/30 04:55:56;;;;;;;4.10;3.70;;;15.60;99.90;;;;;;5073239;28;20196;-59
2022/06/30 04:58:25;;;;;;;5.37;3.63;;;15.60;99.90;;;;;;5073711;28;20238;-59
2022/06/30 05:00:55;;;;;;;6.47;4.10;;;15.70;99.90;;;;;;5073524;28;20263;-59
2022/06/30 05:03:23;;;;;;;10.50;3.80;;;15.70;99.90;;;;;;5060784;28;20311;-59
2022/06/30 05:05:53;;;;;;;11.70;4.30;;;15.80;99.90;;;;;;5053412;28;20662;-59
2022/06/30 05:08:21;;;;;;;10.33;4.13;;;15.80;99.90;;;;;;5053319;28;20243;-60
2022/06/30 05:10:49;;;;;;;10.80;4.57;;;15.80;99.90;;;;;;5053259;28;20285;-59
2022/06/30 05:13:23;;;;;;;9.23;3.97;;;15.80;99.90;;;;;;5053421;28;20193;-59
2022/06/30 05:15:51;;;;;;;5.40;3.80;;;15.90;99.90;;;;;;5053680;28;20279;-59
2022/06/30 05:18:21;;;;;;;8.50;4.10;;;15.90;99.90;;;;;;5058361;28;20291;-60
2022/06/30 05:28:03;;;;;;;7.90;4.07;;;16.20;99.90;;;;;;5055913;28;20669;-59
2022/06/30 05:30:31;;;;;;;12.03;4.20;;;16.40;99.90;;;;;;5064455;28;20695;-59
2022/06/30 05:33:00;;;;;;;7.33;4.20;;;16.60;99.90;;;;;;5052808;28;20186;-60
2022/06/30 05:35:30;;;;;;;5.97;3.73;;;16.80;99.90;;;;;;5061068;28;20225;-59
2022/06/30 05:37:59;;;;;;;7.47;4.23;;;16.80;99.90;;;;;;5072848;28;20287;-59
2022/06/30 05:40:27;;;;;;;7.93;4.37;;;17.00;99.90;;;;;;5073106;28;20665;-59
2022/06/30 05:42:56;;;;;;;7.43;4.07;;;17.00;99.90;;;;;;5073044;28;20229;-59
2022/06/30 05:45:24;;;;;;;4.93;3.63;;;17.20;99.90;;;;;;5072039;28;20610;-60
2022/06/30 05:47:53;;;;;;;7.30;3.80;;;17.20;99.90;;;;;;5072514;28;20605;-59
2022/06/30 05:50:23;;;;;;;18.90;3.90;;;17.40;99.90;;;;;;5073066;28;20211;-59
2022/06/30 05:52:53;;;;;;;11.40;4.03;;;17.40;99.90;;;;;;5076690;28;20222;-60
2022/06/30 05:55:21;;;;;;;5.70;3.83;;;17.40;99.90;;;;;;5076823;28;20192;-60
2022/06/30 05:57:51;;;;;;;9.17;3.97;;;17.30;99.90;;;;;;5076535;28;20194;-59
2022/06/30 06:00:20;;;;;;;6.13;3.20;;;17.20;99.90;;;;;;5075427;28;20283;-59
2022/06/30 06:02:49;;;;;;;8.93;3.60;;;17.20;99.90;;;;;;5076603;28;20253;-60
2022/06/30 06:05:21;;;;;;;7.40;3.67;;;17.20;99.90;;;;;;5075244;28;20200;-59
2022/06/30 06:07:50;;;;;;;5.93;3.50;;;17.10;99.90;;;;;;5058286;28;20194;-59
2022/06/30 06:10:20;;;;;;;6.10;3.90;;;17.20;99.90;;;;;;5068569;28;20581;-59
2022/06/30 06:12:48;;;;;;;7.67;3.50;;;17.20;99.90;;;;;;5076808;28;20266;-59
2022/06/30 06:15:17;;;;;;;6.23;3.27;;;17.30;99.90;;;;;;5076697;28;20274;-59
2022/06/30 06:17:46;;;;;;;4.80;3.10;;;17.40;99.90;;;;;;5076344;28;20282;-60
2022/06/30 06:20:16;;;;;;;7.83;2.97;;;17.60;99.90;;;;;;5077226;28;20270;-60
2022/06/30 06:22:45;;;;;;;5.40;2.80;;;17.80;99.90;;;;;;5076459;28;20191;-59
2022/06/30 06:25:15;;;;;;;4.87;2.70;;;18.10;99.90;;;;;;5076380;28;20190;-59
2022/06/30 06:29:05;;;;;;;5.93;2.70;;;18.20;99.90;;;;;;5076489;28;20222;-59
2022/06/30 06:30:35;;;;;;;4.60;2.10;;;18.30;99.90;;;;;;5076181;28;20188;-59
2022/06/30 06:33:04;;;;;;;2.93;2.30;;;18.40;99.90;;;;;;5076182;28;20631;-59
2022/06/30 06:35:33;;;;;;;5.30;2.20;;;18.40;99.90;;;;;;5076021;28;20360;-59
2022/06/30 06:38:01;;;;;;;2.50;1.90;;;18.50;99.90;;;;;;5076468;28;20272;-60
2022/06/30 06:40:32;;;;;;;4.57;2.10;;;18.70;99.90;;;;;;5074140;28;20278;-60
2022/06/30 06:43:01;;;;;;;3.13;2.07;;;18.90;99.90;;;;;;5075284;28;20215;-60
2022/06/30 06:45:30;;;;;;;4.73;1.70;;;18.90;99.90;;;;;;5072750;28;20244;-59
2022/06/30 06:47:58;;;;;;;2.70;1.60;;;18.80;99.90;;;;;;5073170;28;20265;-59
2022/06/30 06:50:27;;;;;;;2.87;1.70;;;18.70;99.90;;;;;;5055243;28;20216;-59
2022/06/30 06:52:55;;;;;;;2.37;1.80;;;18.70;99.90;;;;;;5055533;28;20663;-59
2022/06/30 06:55:24;;;;;;;3.40;1.80;;;18.80;99.90;;;;;;5055222;28;20557;-60
2022/06/30 06:57:52;;;;;;;3.87;1.70;;;18.90;99.90;;;;;;5055749;28;20189;-59
2022/06/30 07:00:22;;;;;;;2.17;1.83;;;18.90;99.90;;;;;;5063353;28;20275;-60
2022/06/30 07:02:50;;;;;;;1.93;1.70;;;18.80;99.90;;;;;;5074746;28;20274;-59
2022/06/30 07:05:18;;;;;;;3.87;1.80;;;18.80;99.90;;;;;;5075382;28;20235;-59
2022/06/30 07:07:47;;;;;;;3.43;2.00;;;18.70;99.90;;;;;;5075529;28;20189;-60
2022/06/30 07:10:15;;;;;;;2.83;1.90;;;18.70;99.90;;;;;;5075131;28;20192;-59
2022/06/30 07:12:43;;;;;;;1.97;1.60;;;18.70;99.90;;;;;;5067168;28;20294;-59
2022/06/30 07:15:12;;;;;;;3.37;1.60;;;18.80;99.90;;;;;;5075166;28;20275;-59
2022/06/30 07:17:44;;;;;;;1.80;1.70;;;18.80;99.90;;;;;;5075204;28;20226;-60
2022/06/30 07:20:13;;;;;;;2.23;1.70;;;18.80;99.90;;;;;;5090746;28;20203;-59
2022/06/30 07:22:41;;;;;;;3.50;1.80;;;18.80;99.90;;;;;;5075148;28;20571;-59
2022/06/30 07:25:10;;;;;;;2.80;2.00;;;18.70;99.90;;;;;;5069422;28;20640;-59
2022/06/30 07:27:38;;;;;;;1.97;1.77;;;18.70;99.90;;;;;;5068704;28;20216;-59
2022/06/30 07:30:14;;;;;;;2.23;1.63;;;18.80;99.90;;;;;;5075193;28;20191;-59
2022/06/30 07:32:44;;;;;;;4.70;1.80;;;19.00;99.90;;;;;;5073286;28;20248;-59
2022/06/30 07:35:12;;;;;;;3.13;1.60;;;19.20;99.90;;;;;;5075269;28;20185;-59
2022/06/30 07:37:42;;;;;;;1.67;1.57;;;19.40;99.90;;;;;;5075187;28;20275;-59
2022/06/30 07:40:12;;;;;;;3.07;2.00;;;19.70;99.90;;;;;;5074765;28;20543;-59
2022/06/30 07:42:41;;;;;;;2.73;2.00;;;19.90;99.90;;;;;;5073415;28;20283;-58
2022/06/30 07:45:11;;;;;;;3.63;2.00;;;19.90;99.90;;;;;;5074650;28;20523;-59
2022/06/30 07:47:41;;;;;;;5.03;1.97;;;20.00;99.90;;;;;;5074732;28;20343;-59
2022/06/30 07:50:11;;;;;;;3.13;2.10;;;19.90;99.90;;;;;;5074603;28;20614;-60
2022/06/30 07:52:39;;;;;;;5.70;2.10;;;20.00;99.90;;;;;;5074834;28;20215;-59
2022/06/30 07:55:08;;;;;;;3.30;1.73;;;20.20;99.90;;;;;;5074688;28;20190;-58
2022/06/30 07:57:38;;;;;;;3.33;2.00;;;20.20;99.90;;;;;;5074866;28;20253;-59
2022/06/30 08:00:08;;;;;;;2.00;1.80;;;20.30;99.90;;;;;;5074511;28;20227;-59
2022/06/30 08:02:36;;;;;;;4.67;2.10;;;20.30;99.90;;;;;;5074523;28;20245;-59
2022/06/30 08:05:05;;;;;;;4.43;2.17;;;20.10;99.90;;;;;;5074488;28;20543;-59
2022/06/30 08:07:36;;;;;;;2.37;1.70;;;20.20;99.90;;;;;;5074623;28;20196;-59
2022/06/30 08:10:05;;;;;;;2.43;1.90;;;20.20;99.90;;;;;;5072965;28;20283;-58
2022/06/30 08:12:34;;;;;;;3.40;2.17;;;20.10;99.90;;;;;;5074063;28;20608;-60
2022/06/30 08:15:03;;;;;;;4.10;2.20;;;20.10;99.90;;;;;;5074339;28;20719;-60
2022/06/30 08:17:32;;;;;;;3.83;2.30;;;20.20;99.90;;;;;;5073970;28;20227;-59
2022/06/30 08:20:00;;;;;;;2.70;2.27;;;20.30;99.90;;;;;;5074403;28;20195;-59
2022/06/30 08:22:29;;;;;;;3.07;2.00;;;20.30;99.90;;;;;;5074164;28;20188;-58
2022/06/30 08:24:58;;;;;;;3.90;2.00;;;20.40;99.90;;;;;;5074373;28;20288;-58
2022/06/30 08:27:27;;;;;;;2.13;1.93;;;20.50;99.90;;;;;;5074164;28;20622;-59
2022/06/30 08:29:58;;;;;;;3.63;1.97;;;20.50;99.90;;;;;;5073479;28;20275;-59
2022/06/30 08:32:26;;;;;;;3.43;1.93;;;20.50;99.90;;;;;;5072652;28;20298;-59
2022/06/30 08:34:55;;;;;;;2.80;1.70;;;20.40;99.90;;;;;;5073454;28;20551;-59
2022/06/30 08:37:23;;;;;;;4.07;1.80;;;20.30;99.90;;;;;;5072112;28;20224;-60
2022/06/30 08:42:41;;;;;;;2.83;1.87;;;20.20;99.90;;;;;;5056212;28;20196;-59
2022/06/30 08:45:18;;;;;;;2.80;1.97;;;20.10;99.90;;;;;;5073788;28;20288;-60
2022/06/30 08:47:47;;;;;;;3.70;2.30;;;20.00;99.90;;;;;;5073959;28;20246;-59
2022/06/30 08:50:18;;;;;;;2.50;1.80;;;20.10;99.90;;;;;;5073956;28;20275;-60
2022/06/30 08:52:50;;;;;;;4.07;2.30;;;19.90;99.90;;;;;;5073452;28;20771;-59
2022/06/30 08:55:19;;;;;;;4.50;2.00;;;19.90;99.90;;;;;;5073442;28;20616;-60
2022/06/30 08:57:50;;;;;;;2.70;1.90;;;19.80;99.90;;;;;;5072480;28;20223;-59
2022/06/30 09:00:19;;;;;;;3.33;2.20;;;19.90;99.90;;;;;;5073459;28;20274;-59
2022/06/30 09:02:47;;;;;;;4.77;2.27;;;19.90;99.90;;;;;;5073340;28;20255;-59
2022/06/30 09:05:17;;;;;;;4.90;2.40;;;19.90;99.90;;;;;;5073586;28;20267;-59
2022/06/30 09:07:46;;;;;;;7.47;2.20;;;19.90;99.90;;;;;;5071924;28;20223;-59
2022/06/30 09:10:35;;;;;;;5.10;2.13;;;19.90;99.90;;;;;;5064537;28;20203;-59
2022/06/30 09:13:05;;;;;;;5.57;2.33;;;20.00;99.90;;;;;;5058520;28;20230;-60
2022/06/30 09:15:40;;;;;;;2.13;1.93;;;20.00;99.90;;;;;;5059948;28;22012;-59
2022/06/30 09:18:20;;;;;;;4.10;2.20;;;20.00;99.90;;;;;;5073096;28;20199;-60
2022/06/30 09:20:49;;;;;;;5.50;2.30;;;20.10;99.90;;;;;;5073057;28;20290;-59
2022/06/30 09:23:23;;;;;;;6.13;2.60;;;19.90;99.90;;;;;;5072980;28;20679;-59
2022/06/30 09:26:30;;;;;;;5.60;2.47;;;19.80;99.90;;;;;;5075121;28;20192;-59
2022/06/30 09:28:59;;;;;;;7.37;2.40;;;19.60;99.90;;;;;;5077251;28;20195;-59
2022/06/30 09:31:48;;;;;;;5.23;2.50;;;19.50;99.90;;;;;;5075609;28;20207;-59
2022/06/30 09:34:20;;;;;;;6.27;2.63;;;19.40;99.90;;;;;;5077137;28;20393;-59
2022/06/30 09:37:28;;;;;;;6.70;2.90;;;19.20;99.90;;;;;;5077345;28;20513;-59
2022/06/30 09:39:57;;;;;;;7.37;2.80;;;19.20;99.90;;;;;;5076959;28;20192;-59
2022/06/30 09:42:44;;;;;;;2.83;2.30;;;19.10;99.90;;;;;;5075741;28;20200;-58
2022/06/30 09:45:38;;;;;;;5.33;2.53;;;19.10;99.90;;;;;;5076005;28;20669;-59
2022/06/30 09:48:08;;;;;;;6.20;2.93;;;19.10;99.90;;;;;;5076898;28;20196;-59
2022/06/30 09:50:36;;;;;;;8.73;3.10;;;19.00;99.90;;;;;;5077121;28;20196;-58
2022/06/30 09:53:11;;;;;;;5.73;2.40;;;18.90;99.90;;;;;;5076602;28;20299;-59
2022/06/30 09:55:45;;;;;;;4.30;2.43;;;18.80;99.90;;;;;;5075698;28;20191;-59
2022/06/30 09:58:16;;;;;;;5.90;2.67;;;18.80;99.90;;;;;;5075742;28;20237;-59
2022/06/30 10:00:51;;;;;;;6.37;2.57;;;18.90;99.90;;;;;;5075401;28;20198;-59
2022/06/30 10:03:26;;;;;;;6.97;2.50;;;18.90;99.90;;;;;;5076605;28;20764;-59
2022/06/30 10:06:08;;;;;;;5.23;2.60;;;18.90;99.90;;;;;;5075607;28;20191;-59
2022/06/30 10:08:37;;;;;;;3.23;2.13;;;18.80;99.90;;;;;;5076540;28;20196;-59
2022/06/30 10:11:07;;;;;;;5.17;2.70;;;18.80;99.90;;;;;;5075201;28;20310;-59
2022/06/30 10:13:37;;;;;;;2.53;2.33;;;18.70;99.90;;;;;;5076165;28;20204;-59
2022/06/30 10:16:08;;;;;;;7.27;2.60;;;18.70;99.90;;;;;;5076193;28;20720;-59
2022/06/30 10:18:39;;;;;;;5.47;2.63;;;18.70;99.90;;;;;;5076405;28;20173;-59
2022/06/30 10:21:11;;;;;;;3.33;2.80;;;18.70;99.90;;;;;;5093762;28;20196;-59
2022/06/30 10:23:40;;;;;;;5.63;2.67;;;18.60;99.90;;;;;;5076184;28;20176;-59
2022/06/30 10:28:58;;;;;;;3.47;2.47;;;18.50;99.90;;;;;;5071670;28;20250;-59
2022/06/30 10:31:40;;;;;;;8.80;2.40;;;18.40;99.90;;;;;;5059855;28;20189;-59
2022/06/30 10:39:01;;;;;;;6.20;2.60;;;18.40;99.90;;;;;;5074550;28;20155;-59
2022/06/30 10:41:29;;;;;;;3.00;2.80;;;18.30;99.90;;;;;;5075476;28;20254;-60
2022/06/30 10:44:16;;;;;;;7.10;3.40;;;18.30;99.90;;;;;;5075756;28;20275;-60
2022/06/30 10:47:09;;;;;;;6.63;3.63;;;18.40;99.90;;;;;;5075455;28;20674;-59
2022/06/30 10:49:55;;;;;;;7.40;3.37;;;18.40;99.90;;;;;;5065350;28;20294;-60
2022/06/30 10:52:28;;;;;;;7.17;4.20;;;18.40;99.90;;;;;;5056316;28;20239;-60
2022/06/30 10:55:03;;;;;;;3.53;3.20;;;18.40;99.90;;;;;;5075249;28;20215;-59
2022/06/30 10:58:00;;;;;;;7.90;3.17;;;18.40;99.90;;;;;;5075395;28;20223;-60
2022/06/30 11:00:47;;;;;;;5.20;3.53;;;18.40;99.90;;;;;;5055956;28;20251;-60
2022/06/30 11:03:56;;;;;;;6.10;3.13;;;18.40;99.90;;;;;;5070483;28;20219;-60
2022/06/30 11:07:07;;;;;;;6.33;3.53;;;18.40;99.90;;;;;;5054452;28;20708;-59
2022/06/30 11:10:20;;;;;;;3.63;2.90;;;18.50;99.90;;;;;;5075441;28;20200;-59
2022/06/30 11:13:10;;;;;;;5.17;2.93;;;18.50;99.90;;;;;;5054289;28;20290;-59
2022/06/30 11:15:58;;;;;;;4.77;2.80;;;18.50;99.90;;;;;;5074935;28;20283;-60
2022/06/30 11:18:27;;;;;;;3.37;2.70;;;18.70;99.90;;;;;;5067949;28;20641;-60
2022/06/30 11:20:56;;;;;;;7.80;3.13;;;18.70;99.90;;;;;;5072750;28;20261;-59
2022/06/30 11:23:28;;;;;;;6.63;3.13;;;18.80;99.90;;;;;;5075806;28;20188;-59
2022/06/30 11:28:47;;;;;;;4.30;2.70;;;18.60;99.90;;;;;;5075184;28;20635;-60
2022/06/30 11:31:26;;;;;;;3.90;2.87;;;18.50;99.90;;;;;;5091129;28;20188;-59
2022/06/30 11:33:58;;;;;;;4.30;2.93;;;18.50;99.90;;;;;;5090340;28;20220;-59
2022/06/30 11:36:27;;;;;;;5.23;2.87;;;18.60;99.90;;;;;;5075263;28;20192;-60
2022/06/30 11:38:58;;;;;;;4.60;2.90;;;18.50;99.90;;;;;;5074931;28;20280;-59
2022/06/30 11:44:18;;;;;;;2.90;2.50;;;18.50;99.90;;;;;;5053755;28;20254;-59
2022/06/30 11:46:52;;;;;;;6.83;3.10;;;18.50;99.90;;;;;;5054675;28;20602;-59
2022/06/30 11:49:21;;;;;;;6.20;2.70;;;18.50;99.90;;;;;;5054253;28;20260;-59
2022/06/30 11:51:51;;;;;;;5.17;2.53;;;18.40;99.90;;;;;;5071885;28;20693;-59
2022/06/30 11:54:23;;;;;;;4.37;2.10;;;18.30;99.90;;;;;;5074107;28;20242;-59
2022/06/30 11:56:54;;;;;;;7.30;2.00;;;18.30;99.90;;;;;;5074886;28;20195;-60
2022/06/30 11:59:23;;;;;;;2.50;2.10;;;18.10;99.90;;;;;;5074662;28;20192;-60
2022/06/30 12:02:02;;;;;;;2.57;2.10;;;18.00;99.90;;;;;;5072404;28;20212;-59
2022/06/30 12:04:31;;;;;;;3.63;2.20;;;17.80;99.90;;;;;;5074085;28;20228;-60
2022/06/30 12:07:05;;;;;;;3.33;2.50;;;17.80;99.90;;;;;;5074580;28;20223;-59
2022/06/30 12:09:35;;;;;;;2.63;2.43;;;17.90;99.90;;;;;;5072969;28;20188;-60
2022/06/30 12:12:05;;;;;;;7.53;2.73;;;17.90;99.90;;;;;;5073127;28;20274;-60
2022/06/30 12:14:36;;;;;;;2.83;2.60;;;17.90;99.90;;;;;;5073125;28;20216;-60
2022/06/30 12:17:07;;;;;;;4.77;2.90;;;17.90;99.90;;;;;;5074045;28;20218;-60
2022/06/30 12:19:36;;;;;;;4.33;3.00;;;18.10;99.90;;;;;;5073993;28;20199;-59
2022/06/30 12:22:08;;;;;;;5.83;3.37;;;18.10;99.90;;;;;;5090260;28;20198;-60
2022/06/30 12:24:40;;;;;;;6.70;3.40;;;18.20;99.90;;;;;;5072932;28;20229;-59
2022/06/30 12:27:09;;;;;;;4.97;3.40;;;18.20;99.90;;;;;;5073935;28;20279;-59
2022/06/30 12:29:38;;;;;;;4.30;3.40;;;18.10;99.90;;;;;;5070211;28;20197;-60
2022/06/30 12:32:10;;;;;;;6.90;4.60;;;18.00;99.90;;;;;;5054024;28;20193;-59
2022/06/30 12:34:54;;;;;;;7.53;3.87;;;18.00;99.90;;;;;;5064463;28;20215;-59
2022/06/30 12:37:30;;;;;;;6.70;4.10;;;17.90;99.90;;;;;;5073747;28;20267;-59
2022/06/30 12:40:02;;;;;;;8.23;5.23;;;17.80;99.90;;;;;;5074005;28;20245;-60
2022/06/30 12:42:41;;;;;;;6.77;4.70;;;17.60;99.90;;;;;;5074208;28;20216;-59
2022/06/30 12:45:35;;;;;;;8.80;5.20;;;17.60;99.90;;;;;;5060788;28;20217;-59
2022/06/30 12:48:05;;;;;;;5.33;4.80;;;17.50;99.90;;;;;;5065528;28;20204;-59
2022/06/30 12:50:35;;;;;;;9.60;5.43;;;17.40;99.90;;;;;;5065557;28;20194;-59
2022/06/30 12:53:19;;;;;;;8.63;5.73;;;17.40;99.90;;;;;;5053722;28;20242;-60
2022/06/30 12:56:02;;;;;;;8.57;4.50;;;17.40;99.90;;;;;;5063955;28;20253;-59
2022/06/30 12:58:49;;;;;;;7.23;4.00;;;17.30;99.90;;;;;;5073403;28;20204;-60
2022/06/30 13:01:19;;;;;;;6.03;3.63;;;17.20;99.90;;;;;;5072268;28;20203;-60
2022/06/30 13:03:56;;;;;;;6.63;3.60;;;17.00;99.90;;;;;;5072468;28;20308;-59
2022/06/30 13:06:27;;;;;;;7.17;4.13;;;16.90;99.90;;;;;;5073341;28;20203;-60
2022/06/30 13:08:55;;;;;;;7.97;3.97;;;16.80;99.90;;;;;;5064865;28;20256;-60
2022/06/30 13:11:28;;;;;;;5.97;4.33;;;16.80;99.90;;;;;;5041060;28;20251;-60
2022/06/30 13:13:58;;;;;;;6.37;4.30;;;16.80;99.90;;;;;;5073430;28;20229;-61
2022/06/30 13:16:30;;;;;;;4.97;4.10;;;16.70;99.90;;;;;;5072783;28;20261;-60
2022/06/30 13:19:04;;;;;;;9.03;5.23;;;16.60;99.90;;;;;;5071557;28;20655;-60
2022/06/30 13:21:34;;;;;;;10.80;5.40;;;16.50;99.90;;;;;;5063644;28;20196;-60
2022/06/30 13:24:03;;;;;;;9.83;6.00;;;16.50;99.90;;;;;;5072257;28;20199;-60
2022/06/30 13:26:33;;;;;;;7.17;6.13;;;16.40;99.90;;;;;;5070648;28;20654;-60
2022/06/30 13:29:01;;;;;;;11.67;6.63;;;16.30;99.90;;;;;;5069969;28;20558;-61
2022/06/30 13:31:32;;;;;;;11.83;5.63;;;16.20;99.90;;;;;;5066931;28;21254;-59
2022/06/30 13:34:02;;;;;;;7.07;3.70;;;16.10;99.90;;;;;;5063947;28;20555;-60
2022/06/30 13:36:31;;;;;;;5.97;3.63;;;15.90;99.90;;;;;;5058902;28;20623;-60
2022/06/30 13:39:00;;;;;;;6.90;3.30;;;15.80;99.90;;;;;;5071329;28;20204;-59
2022/06/30 13:41:30;;;;;;;4.40;2.90;;;15.60;99.90;;;;;;5070280;28;20284;-59
2022/06/30 13:44:01;;;;;;;3.20;2.90;;;15.40;99.90;;;;;;5070903;28;20275;-60
2022/06/30 13:46:30;;;;;;;3.60;3.30;;;15.30;99.90;;;;;;5066121;28;20193;-60
2022/06/30 13:48:59;;;;;;;5.03;3.33;;;15.20;99.90;;;;;;5066872;28;20299;-60
2022/06/30 13:51:28;;;;;;;3.80;3.50;;;15.10;99.90;;;;;;5064410;28;20196;-61
2022/06/30 13:53:58;;;;;;;3.50;3.13;;;15.10;99.90;;;;;;5082684;28;20310;-61
2022/06/30 13:56:27;;;;;;;6.10;3.20;;;14.90;99.90;;;;;;5060504;28;20291;-60
2022/06/30 13:58:56;;;;;;;4.47;3.17;;;14.80;99.90;;;;;;5069703;28;20272;-61
2022/06/30 14:01:26;;;;;;;5.07;3.40;;;14.80;99.90;;;;;;5064433;28;20196;-60
2022/06/30 14:03:55;;;;;;;6.33;4.10;;;14.70;99.90;;;;;;5062796;28;20240;-60
2022/06/30 14:06:23;;;;;;;5.03;4.43;;;14.80;99.90;;;;;;5064008;28;20932;-61
2022/06/30 14:08:52;;;;;;;5.90;4.73;;;14.80;99.90;;;;;;5071335;28;20275;-61
2022/06/30 14:11:20;;;;;;;3.87;3.67;;;14.70;99.90;;;;;;5070894;28;20242;-61